Latest Coastal Weather Observations for Cooktown

IDQ60701

Issued at 12:02 pm EST Thursday 8 December 2016 (issued every 10 minutes, with the page automatically refreshed every 10 minutes)

About coastal observations | Map of coastal stations | Coastal observations for QLD | Marine services | Other Formats
Station Details ID: 031209 Name: COOKTOWN AIRPORT Lat: -15.45 Lon: 145.19 Height: 4.8 m
Data from the previous 72 hours. | See also: Recent months at Cooktown
Date/Time
EST
Temp
°C
Wind Pressure Rain since
9am
mm
Weather Cloud Vis
km
Sea
Height
m
Swell
Dir  Spd
kts
Gust
kts
hPa Trend Height
m
Period
s
Dir
08/12:00pm 30.1 E 15 21 1009.5 - 0.0 - Mostly clear 10 - - - -
08/11:30am 31.5 ENE 13 17 1009.7 - 0.0 - Partly cloudy 10 - - - -
08/11:00am 31.9 E 12 17 1010.1 - 0.0 - Partly cloudy 10 - - - -
08/10:30am 31.4 E 14 19 1010.3 - 0.0 - Partly cloudy 10 - - - -
08/10:00am 30.6 E 14 18 1010.5 - 0.0 - Partly cloudy 10 - - - -
08/09:30am 30.3 E 13 18 1010.5 - 0.0 - Partly cloudy 10 - - - -
08/09:00am 29.5 ESE 12 16 1010.4 S 3.2 Fine Partly cloudy 40 - - - -
08/08:30am 29.8 E 12 15 1010.5 - 3.2 - Partly cloudy 10 - - - -
08/08:00am 28.8 E 12 16 1010.4 - 3.2 - Partly cloudy 10 - - - -
08/07:30am 28.2 ESE 12 16 1010.2 - 3.2 - Partly cloudy 10 - - - -
08/07:00am 26.9 ESE 9 14 1010.0 - 3.2 - Partly cloudy 10 - - - -
08/06:30am 26.6 ESE 7 9 1009.9 - 3.2 - Partly cloudy 10 - - - -
08/06:00am 25.4 ESE 5 7 1009.4 - 3.2 - Mostly clear 10 - - - -
08/05:30am 25.3 ESE 6 8 1009.4 - 3.2 - - 10 - - - -
08/05:00am 24.8 ESE 6 7 1009.1 - 3.2 - - 10 - - - -
08/04:30am 25.5 ESE 5 6 1009.0 - 3.2 - Partly cloudy 10 - - - -
08/04:00am 25.7 SE 5 6 1009.1 - 3.2 - Partly cloudy 10 - - - -
08/03:30am 25.6 SE 6 8 1008.9 - 3.2 - Partly cloudy 10 - - - -
08/03:00am 25.5 ESE 6 7 1009.0 - 3.2 - Cloudy 10 - - - -
08/02:30am 25.2 E 4 6 1009.2 - 3.0 - Partly cloudy 10 - - - -
08/02:15am 25.0 ESE 5 7 1009.2 - 3.0 - Partly cloudy 10 - - - -
08/02:01am 25.3 ESE 9 17 1009.4 - 3.0 - Partly cloudy 5 - - - -
08/02:00am 25.3 ESE 9 17 1009.4 - 3.0 - Partly cloudy 6 - - - -
08/01:57am 25.6 ESE 8 17 1009.4 - 2.8 - Partly cloudy 8 - - - -
08/01:30am 25.3 ESE 5 6 1009.6 - 2.6 - Partly cloudy 10 - - - -
08/01:17am 25.6 ESE 5 7 1009.7 - 2.6 - Partly cloudy 10 - - - -
08/01:11am 25.7 SE 6 9 1009.8 - 2.6 - Partly cloudy 10 - - - -
08/01:04am 25.8 SE 7 13 1009.9 - 2.6 - Partly cloudy 9 - - - -
08/01:00am 25.6 SE 8 15 1009.9 - 2.6 - Partly cloudy 5 - - - -
08/12:55am 25.8 SE 8 15 1009.9 - 2.4 - Partly cloudy 5 - - - -
08/12:46am 26.1 SE 4 7 1009.9 - 1.8 - Partly cloudy 10 - - - -
08/12:45am 26.1 SE 4 6 1009.9 - 1.8 - Partly cloudy 10 - - - -
08/12:30am 26.0 ESE 5 8 1010.3 - 1.8 - Partly cloudy 10 - - - -
08/12:00am 25.1 N 4 5 1010.5 - 1.8 - Cloudy 10 - - - -
 
Date/Time
EST
Temp
°C
Wind Pressure Rain since
9am
mm
Weather Cloud Vis
km
Sea
Height
m
Swell
Dir  Spd
kts
Gust
kts
hPa Trend Height
m
Period
s
Dir
07/11:58pm 25.0 N 4 5 1010.5 - 1.8 - Cloudy 10 - - - -
07/11:41pm 25.2 ENE 7 10 1010.7 - 1.8 - Partly cloudy 5 - - - -
07/11:30pm 25.6 E 5 8 1010.8 - 1.2 - Partly cloudy 10 - - - -
07/11:00pm 26.1 ESE 6 9 1011.0 - 1.2 - Partly cloudy 10 - - - -
07/10:30pm 25.4 SSE 5 6 1011.0 - 1.2 - Partly cloudy 10 - - - -
07/10:09pm 25.4 SSE 6 10 1011.2 - 0.6 - Partly cloudy 10 - - - -
07/10:00pm 25.4 SSE 6 10 1011.2 - 0.6 - Partly cloudy 10 - - - -
07/09:30pm 25.5 SE 6 10 1011.1 - 0.6 - Partly cloudy 10 - - - -
07/09:00pm 25.1 ESE 4 5 1011.0 - 0.6 - Cloudy 9 - - - -
07/08:30pm 25.6 SSE 4 7 1010.9 - 0.4 - Partly cloudy 10 - - - -
07/08:00pm 25.4 ESE 4 7 1010.8 - 0.4 - Partly cloudy 10 - - - -
07/07:44pm 25.1 E 5 7 1010.8 - 0.4 - Partly cloudy 10 - - - -
07/07:30pm 25.0 ESE 10 15 1010.8 - 0.2 - Partly cloudy 3 - - - -
07/07:22pm 25.4 ESE 14 22 1010.7 - 0.0 - Partly cloudy 5 - - - -
07/07:00pm 27.6 ESE 10 16 1010.3 - 0.0 - Partly cloudy 10 - - - -
07/06:30pm 27.6 SE 8 13 1010.1 - 0.0 - Partly cloudy 10 - - - -
07/06:00pm 28.2 ESE 9 16 1009.7 - 0.0 - Cloudy 10 - - - -
07/05:30pm 28.2 ESE 13 18 1009.6 - 0.0 - Cloudy 10 - - - -
07/05:00pm 28.8 ESE 13 17 1009.5 - 0.0 - Cloudy 10 - - - -
07/04:30pm 31.7 ESE 16 20 1009.2 - 0.0 - Partly cloudy 10 - - - -
07/04:00pm 30.9 ESE 13 19 1009.3 - 0.0 - Partly cloudy 10 - - - -
07/03:30pm 31.0 E 15 20 1009.4 - 0.0 - Partly cloudy 10 - - - -
07/03:00pm 30.0 E 16 19 1009.3 - 0.0 - Cloudy 10 - - - -
07/02:30pm 30.6 E 16 21 1009.6 - 0.0 - Cloudy 10 - - - -
07/02:00pm 30.8 E 16 19 1009.7 - 0.0 - Partly cloudy 10 - - - -
07/01:30pm 31.4 E 13 18 1010.0 - 0.0 - Cloudy 10 - - - -
07/01:00pm 31.2 E 12 16 1010.3 - 0.0 - Cloudy 10 - - - -
07/12:30pm 31.3 E 13 19 1010.6 - 0.0 - Partly cloudy 10 - - - -
07/12:00pm 31.6 E 15 19 1010.7 - 0.0 - - 10 - - - -
07/11:30am 31.3 E 14 19 1011.1 - 0.0 - - 10 - - - -
07/11:00am 31.2 E 13 18 1011.2 - 0.0 - - 10 - - - -
07/10:30am 31.4 E 12 17 1011.4 - 0.0 - - 10 - - - -
07/10:00am 30.6 E 12 17 1011.4 - 0.0 - - 10 - - - -
07/09:30am 30.1 E 11 14 1011.7 - 0.0 - - 10 - - - -
07/09:00am 29.5 ESE 11 19 1011.6 R 0.0 Fine Mostly clear 40 - - - -
07/08:30am 30.2 E 12 17 1011.6 - 0.0 - - 10 - - - -
07/08:00am 29.4 E 11 15 1011.4 - 0.0 - - 10 - - - -
07/07:30am 28.7 ESE 9 13 1011.1 - 0.0 - - 10 - - - -
07/07:00am 28.1 ESE 7 10 1010.8 - 0.0 - Partly cloudy 10 - - - -
07/06:30am 27.0 ESE 5 7 1010.6 - 0.0 - - 10 - - - -
07/06:00am 25.7 ESE 8 11 1010.2 - 0.0 - - 10 - - - -
07/05:30am 25.8 E 9 13 1009.9 - 0.0 - - 10 - - - -
07/05:00am 25.8 E 11 13 1009.6 - 0.0 - - 10 - - - -
07/04:30am 26.1 E 12 17 1009.3 - 0.0 - Partly cloudy 10 - - - -
07/04:00am 26.0 ESE 9 13 1009.0 - 0.0 - Partly cloudy 10 - - - -
07/03:30am 26.5 ESE 12 21 1009.0 - 0.0 - Partly cloudy 10 - - - -
07/03:00am 26.3 ESE 9 13 1008.8 - 0.0 - - 10 - - - -
07/02:30am 26.5 ESE 12 17 1008.9 - 0.0 - - 10 - - - -
07/02:00am 26.4 ESE 12 17 1009.1 - 0.0 - - 10 - - - -
07/01:30am 26.5 ESE 13 19 1009.5 - 0.0 - Partly cloudy 10 - - - -
07/01:00am 26.6 ESE 14 19 1009.7 - 0.0 - Partly cloudy 10 - - - -
07/12:30am 26.9 ESE 14 19 1010.0 - 0.0 - Partly cloudy 10 - - - -
07/12:00am 26.9 ESE 12 18 1010.2 - 0.0 - Cloudy 10 - - - -
 
Date/Time
EST
Temp
°C
Wind Pressure Rain since
9am
mm
Weather Cloud Vis
km
Sea
Height
m
Swell
Dir  Spd
kts
Gust
kts
hPa Trend Height
m
Period
s
Dir
06/11:30pm 26.7 ESE 8 13 1010.8 - 0.0 - Partly cloudy 10 - - - -
06/11:00pm 26.7 ESE 11 16 1010.9 - 0.0 - Partly cloudy 10 - - - -
06/10:30pm 26.9 ESE 11 19 1011.1 - 0.0 - Partly cloudy 10 - - - -
06/10:00pm 26.7 ESE 10 14 1011.2 - 0.0 - Partly cloudy 10 - - - -
06/09:30pm 26.7 ESE 11 16 1011.0 - 0.0 - Partly cloudy 10 - - - -
06/09:00pm 26.5 ESE 9 15 1010.7 - 0.0 - Mostly clear 10 - - - -
06/08:30pm 26.8 ESE 9 15 1010.6 - 0.0 - Partly cloudy 10 - - - -
06/08:00pm 26.8 ESE 9 14 1010.6 - 0.0 - Partly cloudy 10 - - - -
06/07:30pm 27.0 ESE 8 12 1010.6 - 0.0 - Partly cloudy 10 - - - -
06/07:00pm 27.1 ESE 10 13 1010.4 - 0.0 - Partly cloudy 10 - - - -
06/06:30pm 27.6 SE 9 15 1010.2 - 0.0 - Partly cloudy 10 - - - -
06/06:00pm 28.4 SE 10 17 1009.9 - 0.0 - Partly cloudy 10 - - - -
06/05:30pm 28.8 SE 12 20 1009.6 - 0.0 - Partly cloudy 10 - - - -
06/05:00pm 29.3 ESE 15 21 1009.4 - 0.0 - Partly cloudy 10 - - - -
06/04:30pm 29.6 ESE 14 21 1009.2 - 0.0 - - 10 - - - -
06/04:00pm 30.3 ESE 13 19 1009.3 - 0.0 - - 10 - - - -
06/03:30pm 30.6 ESE 14 21 1009.4 - 0.0 - - 10 - - - -
06/03:00pm 31.5 SE 12 21 1009.6 - 0.0 - - 10 - - - -
06/02:30pm 31.6 ESE 13 19 1010.0 - 0.0 - - 10 - - - -
06/02:00pm 30.8 ESE 17 23 1010.5 - 0.0 - - 10 - - - -
06/01:30pm 32.0 E 17 23 1011.1 - 0.0 - - 10 - - - -
06/01:00pm 30.8 ESE 15 21 1011.6 - 0.0 - Partly cloudy 10 - - - -
06/12:30pm 31.5 ESE 15 22 1012.1 - 0.0 - Partly cloudy 10 - - - -
06/12:00pm 31.5 SE 15 22 1012.4 - 0.0 - Partly cloudy 10 - - - -
06/11:30am 31.3 ESE 13 18 1012.9 - 0.0 - Partly cloudy 10 - - - -
06/11:00am 31.0 E 16 24 1013.1 - 0.0 - Partly cloudy 10 - - - -
06/10:30am 31.2 ESE 12 17 1013.4 - 0.0 - Partly cloudy 10 - - - -
06/10:00am 29.8 ESE 16 23 1013.6 - 0.0 - Partly cloudy 10 - - - -
06/09:30am 29.9 SE 11 18 1013.7 - 0.0 - Partly cloudy 10 - - - -
06/09:00am 30.1 E 15 23 1013.4 R 0.0 Fine Mostly clear 40 - - - -
06/08:30am 29.9 E 15 20 1013.6 - 0.0 - Partly cloudy 10 - - - -
06/08:00am 29.2 ESE 13 20 1013.2 - 0.0 - Partly cloudy 10 - - - -
06/07:30am 28.6 ESE 12 15 1012.9 - 0.0 - Partly cloudy 10 - - - -
06/07:00am 28.5 ESE 11 20 1012.8 - 0.0 - Partly cloudy 10 - - - -
06/06:30am 27.2 ESE 8 13 1012.7 - 0.0 - Partly cloudy 10 - - - -
06/06:00am 26.5 ESE 8 13 1011.9 - 0.0 - Partly cloudy 10 - - - -
06/05:30am 26.3 ESE 8 11 1011.5 - 0.0 - Partly cloudy 10 - - - -
06/05:00am 26.2 ESE 8 15 1011.1 - 0.0 - Partly cloudy 10 - - - -
06/04:30am 26.3 ESE 10 15 1010.9 - 0.0 - Partly cloudy 10 - - - -
06/04:00am 26.2 ESE 8 11 1010.6 - 0.0 - Partly cloudy 10 - - - -
06/03:30am 26.2 ESE 10 15 1010.3 - 0.0 - - 10 - - - -
06/03:00am 26.2 ESE 11 17 1010.3 - 0.0 - Mostly clear 10 - - - -
06/02:30am 26.2 ESE 14 19 1010.4 - 0.0 - - 10 - - - -
06/02:00am 26.5 ESE 13 21 1010.3 - 0.0 - Partly cloudy 10 - - - -
06/01:30am 26.3 ESE 8 13 1010.6 - 0.0 - Partly cloudy 10 - - - -
06/01:00am 26.4 ESE 10 13 1011.0 - 0.0 - Partly cloudy 10 - - - -
06/12:30am 26.6 ESE 12 17 1011.4 - 0.0 - Partly cloudy 10 - - - -
06/12:00am 26.7 ESE 11 18 1011.5 - 0.0 - Mostly clear 10 - - - -
 
Date/Time
EST
Temp
°C
Wind Pressure Rain since
9am
mm
Weather Cloud Vis
km
Sea
Height
m
Swell
Dir  Spd
kts
Gust
kts
hPa Trend Height
m
Period
s
Dir
05/11:30pm 27.0 ESE 12 17 1011.7 - 0.0 - Partly cloudy 10 - - - -
05/11:00pm 26.8 ESE 14 21 1011.8 - 0.0 - Partly cloudy 10 - - - -
05/10:30pm 26.7 ESE 11 17 1011.9 - 0.0 - Partly cloudy 10 - - - -
05/10:00pm 26.9 ESE 13 19 1011.8 - 0.0 - - 10 - - - -
05/09:30pm 26.8 ESE 11 19 1011.9 - 0.0 - Partly cloudy 10 - - - -
05/09:00pm 26.8 ESE 11 18 1011.7 - 0.0 - Partly cloudy 10 - - - -
05/08:30pm 27.0 ESE 12 19 1011.5 - 0.0 - Partly cloudy 10 - - - -
05/08:00pm 26.9 SE 8 12 1011.4 - 0.0 - Partly cloudy 10 - - - -
05/07:30pm 27.1 ESE 10 14 1011.3 - 0.0 - Partly cloudy 10 - - - -
05/07:00pm 27.2 ESE 12 17 1011.3 - 0.0 - Partly cloudy 10 - - - -
05/06:30pm 27.7 ESE 11 18 1011.0 - 0.0 - Partly cloudy 10 - - - -
05/06:00pm 28.1 ESE 12 19 1010.8 - 0.0 - Cloudy 10 - - - -
05/05:30pm 28.9 SE 12 18 1010.9 - 0.0 - Partly cloudy 10 - - - -
05/05:00pm 29.0 SE 13 23 1010.8 - 0.0 - Partly cloudy 10 - - - -
05/04:30pm 30.2 SE 12 17 1010.6 - 0.0 - Partly cloudy 10 - - - -
05/04:00pm 29.4 E 16 21 1010.5 - 0.0 - Partly cloudy 10 - - - -
05/03:30pm 30.8 ESE 12 24 1010.5 - 0.0 - Partly cloudy 10 - - - -
05/03:00pm 31.3 E 16 21 1010.5 - 0.0 - Cloudy 10 - - - -
05/02:30pm 32.7 E 16 22 1010.9 - 0.0 - Partly cloudy 10 - - - -
05/02:00pm 30.9 ESE 15 22 1011.2 - 0.0 - Partly cloudy 10 - - - -
05/01:30pm 32.2 ESE 14 21 1011.4 - 0.0 - Partly cloudy 10 - - - -
05/01:00pm 30.8 ESE 15 21 1011.7 - 0.0 - Partly cloudy 10 - - - -
05/12:30pm 31.6 ESE 15 21 1012.3 - 0.0 - Partly cloudy 10 - - - -

Other Formats:

Comma delimited format used in spreadsheet applications
http://www.bom.gov.au/fwo/IDQ60701/IDQ60701.95283.axf

JavaScript Object Notation format (JSON) in row-major order
http://www.bom.gov.au/fwo/IDQ60701/IDQ60701.95283.json